Federal Leda — V7FL3 — position and weather

sailwx.info

Track history (hours):
 
Tides and Currents Weather Stations Pressure Air Temp Water Temp Dewpoint Dewpoint Depression Visibility Wind Speed Wind Dir Waves Ship Positions

Federal Leda

Last reported at 2018-Jun-18 01:11 UTC. Time now 2018-Jun-24 09:19 UTC.
Position N 37°17' W 011°26'.

Length 200 m; draft 9.2 m.

Type: Cargo ship. MMSI: 538005611.

Date/timePositionNaut miles runAvg speedWind from/ knotsBaromVisibWave heightAir tempDewpointWater temp
2018-Jun-18 01:11N 37°17' W 011°26'210.3
2018-Jun-18 01:01N 37°16' W 011°24'510.3
2018-Jun-18 00:30N 37°12' W 011°19'510.1
2018-Jun-18 00:00N 37°09' W 011°14'5 9.9
2018-Jun-17 23:31N 37°06' W 011°09'510.4
2018-Jun-17 23:00N 37°03' W 011°04'3510.0
2018-Jun-17 19:31N 36°43' W 010°28'111.1
2018-Jun-17 19:28N 36°42' W 010°28'511.1
2018-Jun-17 19:00N 36°40' W 010°22'610.8
2018-Jun-17 18:26N 36°37' W 010°16'611.0
2018-Jun-17 17:55N 36°34' W 010°10'511.1
2018-Jun-17 17:30N 36°32' W 010°05'611.5
2018-Jun-17 16:58N 36°29' W 009°58'511.4
2018-Jun-17 16:29N 36°26' W 009°52'611.8
2018-Jun-17 16:00N 36°23' W 009°46'611.9
2018-Jun-17 15:30N 36°20' W 009°39'612.0
2018-Jun-17 15:00N 36°17' W 009°33'612.1
2018-Jun-17 14:29N 36°14' W 009°26'711.9
2018-Jun-17 13:54N 36°11' W 009°19'512.0
2018-Jun-17 13:30N 36°08' W 009°14'611.9
2018-Jun-17 12:59N 36°05' W 009°07'16112.7
2018-Jun-17 00:15N 35°58' W 005°48'414.8
2018-Jun-16 23:59N 35°57' W 005°43'612.6
2018-Jun-16 23:30N 35°57' W 005°36'511.0
2018-Jun-16 23:00N 35°59' W 005°29'5 9.5
2018-Jun-16 22:30N 36°00' W 005°24'4 8.8
2018-Jun-16 22:00N 36°01' W 005°18'5 9.9
2018-Jun-16 21:30N 36°02' W 005°12'611.1
2018-Jun-16 21:00N 36°03' W 005°05'610.6
2018-Jun-16 20:27N 36°04' W 004°58'710.7
2018-Jun-16 19:47N 36°04' W 004°49'511.0
2018-Jun-16 19:19N 36°05' W 004°43'18011.6
2018-Jun-16 03:48N 36°26' W 001°02'412.6
2018-Jun-16 03:29N 36°27' W 000°57'612.4
2018-Jun-16 03:00N 36°28' W 000°50'612.2
2018-Jun-16 02:30N 36°29' W 000°42'612.1
2018-Jun-16 02:00N 36°30' W 000°35'612.2
2018-Jun-16 01:30N 36°31' W 000°27'612.6
2018-Jun-16 01:00N 36°33' W 000°20'612.7
2018-Jun-16 00:30N 36°35' W 000°12'612.5
2018-Jun-16 00:00N 36°37' W 000°05'612.2
2018-Jun-15 23:30N 36°38' E 000°03'612.5
2018-Jun-15 23:00N 36°40' E 000°10'612.6
2018-Jun-15 22:30N 36°41' E 000°18'1112.6
2018-Jun-15 21:36N 36°43' E 000°32'112.5
2018-Jun-15 21:30N 36°44' E 000°33'612.4
2018-Jun-15 21:00N 36°45' E 000°41'612.3
2018-Jun-15 20:30N 36°47' E 000°48'612.2
2018-Jun-15 20:00N 36°48' E 000°56'612.3
2018-Jun-15 19:30N 36°50' E 001°03'612.1
2018-Jun-15 19:00N 36°51' E 001°11'612.0
2018-Jun-15 18:30N 36°53' E 001°18'612.0
2018-Jun-15 17:59N 36°55' E 001°25'611.8
2018-Jun-15 17:30N 36°56' E 001°32'611.7
2018-Jun-15 17:00N 36°57' E 001°39'611.6
2018-Jun-15 16:30N 36°57' E 001°46'611.7
2018-Jun-15 16:00N 36°59' E 001°54'611.5
2018-Jun-15 15:30N 36°60' E 002°01'611.5
2018-Jun-15 15:00N 37°01' E 002°08'611.4
2018-Jun-15 14:30N 37°02' E 002°15'611.0
2018-Jun-15 14:00N 37°02' E 002°22'510.7
2018-Jun-15 13:30N 37°03' E 002°28'510.9
2018-Jun-15 13:00N 37°04' E 002°35'611.6
2018-Jun-15 12:30N 37°05' E 002°42'712.4
2018-Jun-15 11:58N 37°06' E 002°50'612.6
2018-Jun-15 11:30N 37°06' E 002°58'612.6
2018-Jun-15 11:00N 37°06' E 003°05'712.8
2018-Jun-15 10:30N 37°07' E 003°14'712.9
2018-Jun-15 09:55N 37°08' E 003°23'2512.5
2018-Jun-15 07:56N 37°15' E 003°53'1011.9
2018-Jun-15 07:06N 37°17' E 004°05'  
2018-Jun-10 06:43N 41°27' E 029°06'0 0.8
2018-Jun-10 06:14N 41°27' E 029°06'0 0.7
2018-Jun-10 06:00N 41°27' E 029°07'0 0.5
2018-Jun-10 05:30N 41°27' E 029°07'1 2.5
2018-Jun-10 05:01N 41°28' E 029°08'510.0
2018-Jun-10 04:30N 41°28' E 029°14'611.4
2018-Jun-10 04:00N 41°26' E 029°22'611.4
2018-Jun-10 03:30N 41°26' E 029°29'611.3
2018-Jun-10 02:59N 41°25' E 029°37'511.2
2018-Jun-10 02:30N 41°24' E 029°44'611.1
2018-Jun-10 02:00N 41°23' E 029°51'511.1
2018-Jun-10 01:31N 41°23' E 029°59'611.1
2018-Jun-10 01:00N 41°22' E 030°06'511.1
2018-Jun-10 00:30N 41°22' E 030°13'711.1
2018-Jun-09 23:54N 41°21' E 030°22'411.0
2018-Jun-09 23:31N 41°21' E 030°28'611.2
2018-Jun-09 23:00N 41°20' E 030°35'611.5
2018-Jun-09 22:31N 41°20' E 030°43'611.5
2018-Jun-09 22:00N 41°19' E 030°51'611.3
2018-Jun-09 21:31N 41°18' E 030°58'611.6
2018-Jun-09 21:01N 41°18' E 031°06'611.8
2018-Jun-09 20:30N 41°17' E 031°14'511.1
2018-Jun-09 20:00N 41°17' E 031°21'3 6.0
2018-Jun-09 19:30N 41°16' E 031°25'0 0.2
2018-Jun-09 18:59N 41°16' E 031°25'0 0.0
2018-Jun-09 18:30N 41°16' E 031°25'0 0.0
2018-Jun-09 17:57N 41°16' E 031°25'0 0.0
2018-Jun-09 17:30N 41°16' E 031°25'0 0.0
2018-Jun-09 16:33N 41°16' E 031°25'0 0.0
2018-Jun-09 16:27N 41°16' E 031°25'0 0.0
2018-Jun-09 16:00N 41°16' E 031°25'0 0.0
2018-Jun-09 15:30N 41°16' E 031°25'0 0.0
2018-Jun-09 14:30N 41°16' E 031°25'0 0.0
2018-Jun-09 14:00N 41°16' E 031°25'0 0.0
2018-Jun-09 13:18N 41°16' E 031°25'0 0.0
2018-Jun-09 13:00N 41°16' E 031°25'0 0.0
2018-Jun-09 06:44N 41°16' E 031°25'0 0.0
2018-Jun-09 04:02N 41°16' E 031°25'0 0.0
2018-Jun-08 16:59N 41°16' E 031°25'0 0.0
2018-Jun-08 16:26N 41°16' E 031°25'  
Track history (hours):
 
Tides and Currents Weather Stations Pressure Air Temp Water Temp Dewpoint Dewpoint Depression Visibility Wind Speed Wind Dir Waves Ship Positions

Federal Leda

Last reported at 2018-Jun-18 01:11 UTC. Time now 2018-Jun-24 09:19 UTC.
Position N 37°17' W 011°26'.

Length 200 m; draft 9.2 m.

Type: Cargo ship. MMSI: 538005611.

Date/timePositionNaut miles runAvg speedWind from/ knotsBaromVisibWave heightAir tempDewpointWater temp
2018-Jun-18 01:11N 37°17' W 011°26'210.3
2018-Jun-18 01:01N 37°16' W 011°24'510.3
2018-Jun-18 00:30N 37°12' W 011°19'510.1
2018-Jun-18 00:00N 37°09' W 011°14'5 9.9
2018-Jun-17 23:31N 37°06' W 011°09'510.4
2018-Jun-17 23:00N 37°03' W 011°04'3510.0
2018-Jun-17 19:31N 36°43' W 010°28'111.1
2018-Jun-17 19:28N 36°42' W 010°28'511.1
2018-Jun-17 19:00N 36°40' W 010°22'610.8
2018-Jun-17 18:26N 36°37' W 010°16'611.0
2018-Jun-17 17:55N 36°34' W 010°10'511.1
2018-Jun-17 17:30N 36°32' W 010°05'611.5
2018-Jun-17 16:58N 36°29' W 009°58'511.4
2018-Jun-17 16:29N 36°26' W 009°52'611.8
2018-Jun-17 16:00N 36°23' W 009°46'611.9
2018-Jun-17 15:30N 36°20' W 009°39'612.0
2018-Jun-17 15:00N 36°17' W 009°33'612.1
2018-Jun-17 14:29N 36°14' W 009°26'711.9
2018-Jun-17 13:54N 36°11' W 009°19'512.0
2018-Jun-17 13:30N 36°08' W 009°14'611.9
2018-Jun-17 12:59N 36°05' W 009°07'16112.7
2018-Jun-17 00:15N 35°58' W 005°48'414.8
2018-Jun-16 23:59N 35°57' W 005°43'612.6
2018-Jun-16 23:30N 35°57' W 005°36'511.0
2018-Jun-16 23:00N 35°59' W 005°29'5 9.5
2018-Jun-16 22:30N 36°00' W 005°24'4 8.8
2018-Jun-16 22:00N 36°01' W 005°18'5 9.9
2018-Jun-16 21:30N 36°02' W 005°12'611.1
2018-Jun-16 21:00N 36°03' W 005°05'610.6
2018-Jun-16 20:27N 36°04' W 004°58'710.7
2018-Jun-16 19:47N 36°04' W 004°49'511.0
2018-Jun-16 19:19N 36°05' W 004°43'18011.6
2018-Jun-16 03:48N 36°26' W 001°02'412.6
2018-Jun-16 03:29N 36°27' W 000°57'612.4
2018-Jun-16 03:00N 36°28' W 000°50'612.2
2018-Jun-16 02:30N 36°29' W 000°42'612.1
2018-Jun-16 02:00N 36°30' W 000°35'612.2
2018-Jun-16 01:30N 36°31' W 000°27'612.6
2018-Jun-16 01:00N 36°33' W 000°20'612.7
2018-Jun-16 00:30N 36°35' W 000°12'612.5
2018-Jun-16 00:00N 36°37' W 000°05'612.2
2018-Jun-15 23:30N 36°38' E 000°03'612.5
2018-Jun-15 23:00N 36°40' E 000°10'612.6
2018-Jun-15 22:30N 36°41' E 000°18'1112.6
2018-Jun-15 21:36N 36°43' E 000°32'112.5
2018-Jun-15 21:30N 36°44' E 000°33'612.4
2018-Jun-15 21:00N 36°45' E 000°41'612.3
2018-Jun-15 20:30N 36°47' E 000°48'612.2
2018-Jun-15 20:00N 36°48' E 000°56'612.3
2018-Jun-15 19:30N 36°50' E 001°03'612.1
2018-Jun-15 19:00N 36°51' E 001°11'612.0
2018-Jun-15 18:30N 36°53' E 001°18'612.0
2018-Jun-15 17:59N 36°55' E 001°25'611.8
2018-Jun-15 17:30N 36°56' E 001°32'611.7
2018-Jun-15 17:00N 36°57' E 001°39'611.6
2018-Jun-15 16:30N 36°57' E 001°46'611.7
2018-Jun-15 16:00N 36°59' E 001°54'611.5
2018-Jun-15 15:30N 36°60' E 002°01'611.5
2018-Jun-15 15:00N 37°01' E 002°08'611.4
2018-Jun-15 14:30N 37°02' E 002°15'611.0
2018-Jun-15 14:00N 37°02' E 002°22'510.7
2018-Jun-15 13:30N 37°03' E 002°28'510.9
2018-Jun-15 13:00N 37°04' E 002°35'611.6
2018-Jun-15 12:30N 37°05' E 002°42'712.4
2018-Jun-15 11:58N 37°06' E 002°50'612.6
2018-Jun-15 11:30N 37°06' E 002°58'612.6
2018-Jun-15 11:00N 37°06' E 003°05'712.8
2018-Jun-15 10:30N 37°07' E 003°14'712.9
2018-Jun-15 09:55N 37°08' E 003°23'2512.5
2018-Jun-15 07:56N 37°15' E 003°53'1011.9
2018-Jun-15 07:06N 37°17' E 004°05'  
2018-Jun-10 06:43N 41°27' E 029°06'0 0.8
2018-Jun-10 06:14N 41°27' E 029°06'0 0.7
2018-Jun-10 06:00N 41°27' E 029°07'0 0.5
2018-Jun-10 05:30N 41°27' E 029°07'1 2.5
2018-Jun-10 05:01N 41°28' E 029°08'510.0
2018-Jun-10 04:30N 41°28' E 029°14'611.4
2018-Jun-10 04:00N 41°26' E 029°22'611.4
2018-Jun-10 03:30N 41°26' E 029°29'611.3
2018-Jun-10 02:59N 41°25' E 029°37'511.2
2018-Jun-10 02:30N 41°24' E 029°44'611.1
2018-Jun-10 02:00N 41°23' E 029°51'511.1
2018-Jun-10 01:31N 41°23' E 029°59'611.1
2018-Jun-10 01:00N 41°22' E 030°06'511.1
2018-Jun-10 00:30N 41°22' E 030°13'711.1
2018-Jun-09 23:54N 41°21' E 030°22'411.0
2018-Jun-09 23:31N 41°21' E 030°28'611.2
2018-Jun-09 23:00N 41°20' E 030°35'611.5
2018-Jun-09 22:31N 41°20' E 030°43'611.5
2018-Jun-09 22:00N 41°19' E 030°51'611.3
2018-Jun-09 21:31N 41°18' E 030°58'611.6
2018-Jun-09 21:01N 41°18' E 031°06'611.8
2018-Jun-09 20:30N 41°17' E 031°14'511.1
2018-Jun-09 20:00N 41°17' E 031°21'3 6.0
2018-Jun-09 19:30N 41°16' E 031°25'0 0.2
2018-Jun-09 18:59N 41°16' E 031°25'0 0.0
2018-Jun-09 18:30N 41°16' E 031°25'0 0.0
2018-Jun-09 17:57N 41°16' E 031°25'0 0.0
2018-Jun-09 17:30N 41°16' E 031°25'0 0.0
2018-Jun-09 16:33N 41°16' E 031°25'0 0.0
2018-Jun-09 16:27N 41°16' E 031°25'0 0.0
2018-Jun-09 16:00N 41°16' E 031°25'0 0.0
2018-Jun-09 15:30N 41°16' E 031°25'0 0.0
2018-Jun-09 14:30N 41°16' E 031°25'0 0.0
2018-Jun-09 14:00N 41°16' E 031°25'0 0.0
2018-Jun-09 13:18N 41°16' E 031°25'0 0.0
2018-Jun-09 13:00N 41°16' E 031°25'0 0.0
2018-Jun-09 06:44N 41°16' E 031°25'0 0.0
2018-Jun-09 04:02N 41°16' E 031°25'0 0.0
2018-Jun-08 16:59N 41°16' E 031°25'0 0.0
2018-Jun-08 16:26N 41°16' E 031°25'  

Dump ship's entire track history